sensor_id;sensor_type;location;lat;lon;timestamp;P1;durP1;ratioP1;P2;durP2;ratioP2
261;SDS011;114;48.260;10.988;2022-08-01T00:00:33;2.53;;;2.20;;
261;SDS011;114;48.260;10.988;2022-08-01T00:02:58;4.53;;;2.10;;
261;SDS011;114;48.260;10.988;2022-08-01T00:05:24;3.00;;;2.50;;
261;SDS011;114;48.260;10.988;2022-08-01T00:07:50;2.33;;;2.23;;
261;SDS011;114;48.260;10.988;2022-08-01T00:10:16;5.83;;;1.90;;
261;SDS011;114;48.260;10.988;2022-08-01T00:12:44;5.00;;;2.40;;
261;SDS011;114;48.260;10.988;2022-08-01T00:15:12;4.10;;;2.40;;
261;SDS011;114;48.260;10.988;2022-08-01T00:17:39;2.07;;;1.97;;
261;SDS011;114;48.260;10.988;2022-08-01T00:20:09;1.93;;;1.83;;
261;SDS011;114;48.260;10.988;2022-08-01T00:22:36;3.30;;;2.33;;
261;SDS011;114;48.260;10.988;2022-08-01T00:25:03;3.37;;;2.57;;
261;SDS011;114;48.260;10.988;2022-08-01T00:27:29;10.07;;;2.30;;
261;SDS011;114;48.260;10.988;2022-08-01T00:29:56;3.10;;;2.60;;
261;SDS011;114;48.260;10.988;2022-08-01T00:32:22;4.57;;;2.00;;
261;SDS011;114;48.260;10.988;2022-08-01T00:34:48;2.93;;;2.30;;
261;SDS011;114;48.260;10.988;2022-08-01T00:37:17;2.30;;;2.13;;
261;SDS011;114;48.260;10.988;2022-08-01T00:39:42;2.13;;;2.03;;
261;SDS011;114;48.260;10.988;2022-08-01T00:42:09;2.20;;;2.00;;
261;SDS011;114;48.260;10.988;2022-08-01T00:44:35;2.60;;;2.50;;
261;SDS011;114;48.260;10.988;2022-08-01T00:47:02;4.10;;;2.47;;
261;SDS011;114;48.260;10.988;2022-08-01T00:49:29;6.53;;;2.23;;
261;SDS011;114;48.260;10.988;2022-08-01T00:51:55;1.97;;;1.87;;
261;SDS011;114;48.260;10.988;2022-08-01T00:54:24;4.80;;;2.47;;
261;SDS011;114;48.260;10.988;2022-08-01T00:56:51;3.10;;;2.70;;
261;SDS011;114;48.260;10.988;2022-08-01T00:59:18;3.00;;;2.73;;
261;SDS011;114;48.260;10.988;2022-08-01T01:01:45;5.80;;;2.27;;
261;SDS011;114;48.260;10.988;2022-08-01T01:04:11;2.60;;;2.40;;
261;SDS011;114;48.260;10.988;2022-08-01T01:09:27;3.27;;;3.03;;
261;SDS011;114;48.260;10.988;2022-08-01T01:14:44;3.20;;;2.83;;
261;SDS011;114;48.260;10.988;2022-08-01T01:17:25;4.67;;;2.70;;
261;SDS011;114;48.260;10.988;2022-08-01T01:20:04;5.33;;;3.30;;
261;SDS011;114;48.260;10.988;2022-08-01T01:30:57;2.90;;;2.70;;
261;SDS011;114;48.260;10.988;2022-08-01T01:33:25;3.43;;;3.23;;
261;SDS011;114;48.260;10.988;2022-08-01T01:36:00;2.83;;;2.73;;
261;SDS011;114;48.260;10.988;2022-08-01T01:38:32;2.77;;;2.57;;
261;SDS011;114;48.260;10.988;2022-08-01T01:41:01;3.13;;;2.50;;
261;SDS011;114;48.260;10.988;2022-08-01T01:43:29;7.07;;;2.60;;
261;SDS011;114;48.260;10.988;2022-08-01T01:45:59;8.83;;;2.50;;
261;SDS011;114;48.260;10.988;2022-08-01T01:48:27;4.20;;;2.77;;
261;SDS011;114;48.260;10.988;2022-08-01T01:50:54;2.77;;;2.57;;
261;SDS011;114;48.260;10.988;2022-08-01T01:53:21;2.53;;;2.27;;
261;SDS011;114;48.260;10.988;2022-08-01T01:55:49;3.70;;;2.40;;
261;SDS011;114;48.260;10.988;2022-08-01T01:58:17;4.70;;;2.87;;
261;SDS011;114;48.260;10.988;2022-08-01T02:00:45;3.10;;;2.53;;
261;SDS011;114;48.260;10.988;2022-08-01T02:03:13;4.97;;;2.70;;
261;SDS011;114;48.260;10.988;2022-08-01T02:05:41;2.60;;;2.40;;
261;SDS011;114;48.260;10.988;2022-08-01T02:08:07;4.50;;;2.60;;
261;SDS011;114;48.260;10.988;2022-08-01T02:10:36;4.10;;;2.33;;
261;SDS011;114;48.260;10.988;2022-08-01T02:13:04;2.43;;;2.33;;
261;SDS011;114;48.260;10.988;2022-08-01T02:15:31;2.33;;;2.23;;
261;SDS011;114;48.260;10.988;2022-08-01T02:18:00;3.20;;;2.50;;
261;SDS011;114;48.260;10.988;2022-08-01T02:20:29;3.93;;;2.27;;
261;SDS011;114;48.260;10.988;2022-08-01T02:22:57;3.93;;;2.57;;
261;SDS011;114;48.260;10.988;2022-08-01T02:25:48;2.53;;;2.33;;
261;SDS011;114;48.260;10.988;2022-08-01T02:28:25;2.20;;;2.10;;
261;SDS011;114;48.260;10.988;2022-08-01T02:31:04;2.50;;;2.40;;
261;SDS011;114;48.260;10.988;2022-08-01T02:33:40;4.97;;;2.60;;
261;SDS011;114;48.260;10.988;2022-08-01T02:36:10;2.50;;;2.33;;
261;SDS011;114;48.260;10.988;2022-08-01T02:38:39;4.80;;;2.60;;
261;SDS011;114;48.260;10.988;2022-08-01T02:41:09;2.30;;;2.20;;
261;SDS011;114;48.260;10.988;2022-08-01T02:43:40;2.80;;;2.70;;
261;SDS011;114;48.260;10.988;2022-08-01T02:46:11;2.80;;;2.10;;
261;SDS011;114;48.260;10.988;2022-08-01T02:48:46;8.00;;;2.63;;
261;SDS011;114;48.260;10.988;2022-08-01T02:51:15;13.93;;;2.17;;
261;SDS011;114;48.260;10.988;2022-08-01T02:53:42;2.80;;;2.60;;
261;SDS011;114;48.260;10.988;2022-08-01T02:56:10;7.23;;;2.40;;
261;SDS011;114;48.260;10.988;2022-08-01T02:58:38;2.40;;;2.20;;
261;SDS011;114;48.260;10.988;2022-08-01T03:01:05;4.17;;;2.00;;
261;SDS011;114;48.260;10.988;2022-08-01T03:03:34;2.63;;;2.33;;
261;SDS011;114;48.260;10.988;2022-08-01T03:06:02;2.80;;;2.23;;
261;SDS011;114;48.260;10.988;2022-08-01T03:08:29;2.77;;;2.50;;
261;SDS011;114;48.260;10.988;2022-08-01T03:10:56;2.70;;;2.50;;
261;SDS011;114;48.260;10.988;2022-08-01T03:13:25;2.67;;;2.50;;
261;SDS011;114;48.260;10.988;2022-08-01T03:15:52;2.50;;;2.40;;
261;SDS011;114;48.260;10.988;2022-08-01T03:18:20;4.43;;;2.33;;
261;SDS011;114;48.260;10.988;2022-08-01T03:20:49;2.60;;;2.40;;
261;SDS011;114;48.260;10.988;2022-08-01T03:23:17;3.87;;;2.47;;
261;SDS011;114;48.260;10.988;2022-08-01T03:25:46;2.37;;;2.13;;
261;SDS011;114;48.260;10.988;2022-08-01T03:28:13;4.50;;;2.50;;
261;SDS011;114;48.260;10.988;2022-08-01T03:30:42;2.60;;;2.33;;
261;SDS011;114;48.260;10.988;2022-08-01T03:33:09;7.60;;;2.97;;
261;SDS011;114;48.260;10.988;2022-08-01T03:35:43;7.60;;;2.60;;
261;SDS011;114;48.260;10.988;2022-08-01T03:38:13;2.67;;;2.57;;
261;SDS011;114;48.260;10.988;2022-08-01T03:43:47;2.63;;;2.43;;
261;SDS011;114;48.260;10.988;2022-08-01T03:46:18;10.30;;;2.40;;
261;SDS011;114;48.260;10.988;2022-08-01T03:48:47;5.10;;;2.77;;
261;SDS011;114;48.260;10.988;2022-08-01T03:51:15;3.07;;;2.80;;
261;SDS011;114;48.260;10.988;2022-08-01T03:53:44;2.63;;;2.53;;
261;SDS011;114;48.260;10.988;2022-08-01T03:56:12;2.77;;;2.40;;
261;SDS011;114;48.260;10.988;2022-08-01T03:58:41;3.67;;;2.60;;
261;SDS011;114;48.260;10.988;2022-08-01T04:01:14;2.83;;;2.47;;
261;SDS011;114;48.260;10.988;2022-08-01T04:03:41;2.80;;;2.60;;
261;SDS011;114;48.260;10.988;2022-08-01T04:06:08;5.27;;;2.00;;
261;SDS011;114;48.260;10.988;2022-08-01T04:08:38;2.57;;;2.37;;
261;SDS011;114;48.260;10.988;2022-08-01T04:11:05;3.63;;;1.90;;
261;SDS011;114;48.260;10.988;2022-08-01T04:13:32;3.50;;;2.13;;
261;SDS011;114;48.260;10.988;2022-08-01T04:15:58;7.30;;;2.27;;
261;SDS011;114;48.260;10.988;2022-08-01T04:18:24;5.47;;;2.17;;
261;SDS011;114;48.260;10.988;2022-08-01T04:20:50;2.47;;;2.27;;
261;SDS011;114;48.260;10.988;2022-08-01T04:23:16;2.43;;;2.23;;
261;SDS011;114;48.260;10.988;2022-08-01T04:25:45;3.63;;;3.00;;
261;SDS011;114;48.260;10.988;2022-08-01T04:28:13;4.73;;;2.30;;
261;SDS011;114;48.260;10.988;2022-08-01T04:30:41;4.93;;;2.53;;
261;SDS011;114;48.260;10.988;2022-08-01T04:33:11;2.93;;;2.83;;
261;SDS011;114;48.260;10.988;2022-08-01T04:35:41;3.47;;;2.70;;
261;SDS011;114;48.260;10.988;2022-08-01T04:38:10;5.00;;;2.97;;
261;SDS011;114;48.260;10.988;2022-08-01T04:40:40;2.73;;;2.53;;
261;SDS011;114;48.260;10.988;2022-08-01T04:43:06;2.40;;;2.30;;
261;SDS011;114;48.260;10.988;2022-08-01T04:45:32;6.80;;;2.40;;
261;SDS011;114;48.260;10.988;2022-08-01T04:48:00;3.43;;;2.70;;
261;SDS011;114;48.260;10.988;2022-08-01T04:50:29;5.13;;;3.50;;
261;SDS011;114;48.260;10.988;2022-08-01T04:52:56;4.10;;;3.60;;
261;SDS011;114;48.260;10.988;2022-08-01T04:55:25;2.60;;;2.50;;
261;SDS011;114;48.260;10.988;2022-08-01T04:57:51;2.93;;;2.70;;
261;SDS011;114;48.260;10.988;2022-08-01T05:00:16;5.37;;;2.43;;
261;SDS011;114;48.260;10.988;2022-08-01T05:02:42;2.90;;;2.70;;
261;SDS011;114;48.260;10.988;2022-08-01T05:05:08;6.40;;;2.00;;
261;SDS011;114;48.260;10.988;2022-08-01T05:07:35;6.10;;;2.03;;
261;SDS011;114;48.260;10.988;2022-08-01T05:10:02;2.60;;;2.40;;
261;SDS011;114;48.260;10.988;2022-08-01T05:12:31;2.53;;;2.40;;
261;SDS011;114;48.260;10.988;2022-08-01T05:14:58;3.53;;;2.30;;
261;SDS011;114;48.260;10.988;2022-08-01T05:17:24;3.90;;;2.50;;
261;SDS011;114;48.260;10.988;2022-08-01T05:19:50;6.20;;;2.60;;
261;SDS011;114;48.260;10.988;2022-08-01T05:22:16;2.33;;;2.20;;
261;SDS011;114;48.260;10.988;2022-08-01T05:24:42;5.13;;;2.30;;
261;SDS011;114;48.260;10.988;2022-08-01T05:27:08;9.47;;;2.30;;
261;SDS011;114;48.260;10.988;2022-08-01T05:29:34;2.30;;;2.20;;
261;SDS011;114;48.260;10.988;2022-08-01T05:32:00;4.20;;;2.40;;
261;SDS011;114;48.260;10.988;2022-08-01T05:34:27;5.23;;;2.67;;
261;SDS011;114;48.260;10.988;2022-08-01T05:36:53;6.40;;;2.90;;
261;SDS011;114;48.260;10.988;2022-08-01T05:39:20;5.23;;;2.60;;
261;SDS011;114;48.260;10.988;2022-08-01T05:41:45;2.77;;;2.60;;
261;SDS011;114;48.260;10.988;2022-08-01T05:44:11;2.73;;;2.63;;
261;SDS011;114;48.260;10.988;2022-08-01T05:46:37;10.03;;;2.10;;
261;SDS011;114;48.260;10.988;2022-08-01T05:49:05;2.50;;;2.27;;
261;SDS011;114;48.260;10.988;2022-08-01T05:51:34;4.20;;;2.67;;
261;SDS011;114;48.260;10.988;2022-08-01T05:54:00;2.67;;;2.47;;
261;SDS011;114;48.260;10.988;2022-08-01T05:56:26;3.20;;;2.67;;
261;SDS011;114;48.260;10.988;2022-08-01T05:58:51;3.10;;;2.40;;
261;SDS011;114;48.260;10.988;2022-08-01T06:01:18;2.30;;;2.10;;
261;SDS011;114;48.260;10.988;2022-08-01T06:03:44;2.63;;;2.47;;
261;SDS011;114;48.260;10.988;2022-08-01T06:06:09;2.70;;;1.50;;
261;SDS011;114;48.260;10.988;2022-08-01T06:08:35;1.97;;;1.87;;
261;SDS011;114;48.260;10.988;2022-08-01T06:11:01;2.60;;;2.10;;
261;SDS011;114;48.260;10.988;2022-08-01T06:13:27;2.10;;;2.00;;
261;SDS011;114;48.260;10.988;2022-08-01T06:15:53;2.73;;;2.30;;
261;SDS011;114;48.260;10.988;2022-08-01T06:18:19;7.33;;;2.10;;
261;SDS011;114;48.260;10.988;2022-08-01T06:20:45;2.50;;;2.30;;
261;SDS011;114;48.260;10.988;2022-08-01T06:23:10;2.20;;;2.10;;
261;SDS011;114;48.260;10.988;2022-08-01T06:25:39;5.30;;;2.00;;
261;SDS011;114;48.260;10.988;2022-08-01T06:28:05;5.13;;;2.30;;
261;SDS011;114;48.260;10.988;2022-08-01T06:30:31;2.77;;;2.43;;
261;SDS011;114;48.260;10.988;2022-08-01T06:32:56;3.73;;;2.13;;
261;SDS011;114;48.260;10.988;2022-08-01T06:35:23;4.97;;;2.40;;
261;SDS011;114;48.260;10.988;2022-08-01T06:37:49;3.83;;;2.57;;
261;SDS011;114;48.260;10.988;2022-08-01T06:40:15;7.70;;;2.50;;
261;SDS011;114;48.260;10.988;2022-08-01T06:42:40;2.20;;;2.00;;
261;SDS011;114;48.260;10.988;2022-08-01T06:45:13;2.63;;;2.43;;
261;SDS011;114;48.260;10.988;2022-08-01T06:47:39;2.30;;;2.20;;
261;SDS011;114;48.260;10.988;2022-08-01T06:50:07;3.83;;;2.40;;
261;SDS011;114;48.260;10.988;2022-08-01T06:52:33;2.57;;;1.97;;
261;SDS011;114;48.260;10.988;2022-08-01T06:55:00;5.13;;;2.30;;
261;SDS011;114;48.260;10.988;2022-08-01T06:57:26;3.27;;;2.97;;
261;SDS011;114;48.260;10.988;2022-08-01T06:59:52;5.53;;;2.80;;
261;SDS011;114;48.260;10.988;2022-08-01T07:02:18;4.60;;;2.10;;
261;SDS011;114;48.260;10.988;2022-08-01T07:04:44;5.13;;;2.17;;
261;SDS011;114;48.260;10.988;2022-08-01T07:07:10;5.07;;;2.50;;
261;SDS011;114;48.260;10.988;2022-08-01T07:09:35;2.30;;;2.17;;
261;SDS011;114;48.260;10.988;2022-08-01T07:12:02;3.97;;;2.00;;
261;SDS011;114;48.260;10.988;2022-08-01T07:14:28;2.27;;;2.17;;
261;SDS011;114;48.260;10.988;2022-08-01T07:16:54;2.80;;;2.60;;
261;SDS011;114;48.260;10.988;2022-08-01T07:19:20;4.33;;;2.30;;
261;SDS011;114;48.260;10.988;2022-08-01T07:21:45;2.00;;;1.90;;
261;SDS011;114;48.260;10.988;2022-08-01T07:24:12;2.43;;;2.13;;
261;SDS011;114;48.260;10.988;2022-08-01T07:26:42;3.17;;;2.97;;
261;SDS011;114;48.260;10.988;2022-08-01T07:29:09;7.90;;;2.77;;
261;SDS011;114;48.260;10.988;2022-08-01T07:31:34;2.30;;;2.07;;
261;SDS011;114;48.260;10.988;2022-08-01T07:34:00;4.57;;;2.90;;
261;SDS011;114;48.260;10.988;2022-08-01T07:36:26;2.47;;;2.27;;
261;SDS011;114;48.260;10.988;2022-08-01T07:38:52;2.97;;;2.00;;
261;SDS011;114;48.260;10.988;2022-08-01T07:41:17;4.97;;;1.87;;
261;SDS011;114;48.260;10.988;2022-08-01T07:43:43;3.67;;;2.50;;
261;SDS011;114;48.260;10.988;2022-08-01T07:46:09;2.40;;;2.20;;
261;SDS011;114;48.260;10.988;2022-08-01T07:48:35;4.03;;;2.40;;
261;SDS011;114;48.260;10.988;2022-08-01T07:51:00;1.87;;;1.77;;
261;SDS011;114;48.260;10.988;2022-08-01T07:53:26;2.43;;;2.23;;
261;SDS011;114;48.260;10.988;2022-08-01T07:55:55;2.80;;;2.10;;
261;SDS011;114;48.260;10.988;2022-08-01T07:58:20;2.43;;;1.80;;
261;SDS011;114;48.260;10.988;2022-08-01T08:00:49;2.00;;;1.90;;
261;SDS011;114;48.260;10.988;2022-08-01T08:03:14;6.40;;;2.20;;
261;SDS011;114;48.260;10.988;2022-08-01T08:05:40;2.20;;;2.10;;
261;SDS011;114;48.260;10.988;2022-08-01T08:08:06;2.30;;;2.10;;
261;SDS011;114;48.260;10.988;2022-08-01T08:10:33;5.97;;;2.50;;
261;SDS011;114;48.260;10.988;2022-08-01T08:12:59;10.20;;;2.10;;
261;SDS011;114;48.260;10.988;2022-08-01T08:15:28;2.73;;;2.43;;
261;SDS011;114;48.260;10.988;2022-08-01T08:17:54;2.07;;;1.87;;
261;SDS011;114;48.260;10.988;2022-08-01T08:20:20;3.10;;;2.50;;
261;SDS011;114;48.260;10.988;2022-08-01T08:22:50;2.50;;;2.30;;
261;SDS011;114;48.260;10.988;2022-08-01T08:25:16;2.40;;;2.00;;
261;SDS011;114;48.260;10.988;2022-08-01T08:27:44;4.67;;;2.00;;
261;SDS011;114;48.260;10.988;2022-08-01T08:30:11;2.87;;;2.70;;
261;SDS011;114;48.260;10.988;2022-08-01T08:32:37;3.37;;;2.10;;
261;SDS011;114;48.260;10.988;2022-08-01T08:35:03;2.53;;;2.33;;
261;SDS011;114;48.260;10.988;2022-08-01T08:37:30;2.10;;;2.00;;
261;SDS011;114;48.260;10.988;2022-08-01T08:39:56;1.90;;;1.80;;
261;SDS011;114;48.260;10.988;2022-08-01T08:42:21;3.90;;;1.90;;
261;SDS011;114;48.260;10.988;2022-08-01T08:44:48;4.13;;;1.87;;
261;SDS011;114;48.260;10.988;2022-08-01T08:47:14;5.23;;;1.73;;
261;SDS011;114;48.260;10.988;2022-08-01T08:49:42;2.60;;;1.80;;
261;SDS011;114;48.260;10.988;2022-08-01T08:52:09;1.93;;;1.83;;
261;SDS011;114;48.260;10.988;2022-08-01T08:54:37;2.20;;;2.00;;
261;SDS011;114;48.260;10.988;2022-08-01T08:57:03;1.83;;;1.73;;
261;SDS011;114;48.260;10.988;2022-08-01T08:59:30;3.23;;;2.10;;
261;SDS011;114;48.260;10.988;2022-08-01T09:01:58;5.00;;;2.17;;
261;SDS011;114;48.260;10.988;2022-08-01T09:04:24;2.40;;;2.00;;
261;SDS011;114;48.260;10.988;2022-08-01T09:06:51;5.50;;;1.57;;
261;SDS011;114;48.260;10.988;2022-08-01T09:09:17;2.20;;;2.00;;
261;SDS011;114;48.260;10.988;2022-08-01T09:11:43;2.70;;;1.73;;
261;SDS011;114;48.260;10.988;2022-08-01T09:14:13;2.07;;;1.90;;
261;SDS011;114;48.260;10.988;2022-08-01T09:16:47;2.30;;;1.87;;
261;SDS011;114;48.260;10.988;2022-08-01T09:19:36;1.60;;;1.50;;
261;SDS011;114;48.260;10.988;2022-08-01T09:22:05;1.33;;;1.23;;
261;SDS011;114;48.260;10.988;2022-08-01T09:24:32;2.13;;;1.20;;
261;SDS011;114;48.260;10.988;2022-08-01T09:27:00;3.07;;;1.77;;
261;SDS011;114;48.260;10.988;2022-08-01T09:29:39;1.47;;;1.37;;
261;SDS011;114;48.260;10.988;2022-08-01T09:32:05;1.60;;;1.50;;
261;SDS011;114;48.260;10.988;2022-08-01T09:34:34;9.63;;;1.53;;
261;SDS011;114;48.260;10.988;2022-08-01T09:37:01;1.33;;;1.33;;
261;SDS011;114;48.260;10.988;2022-08-01T09:39:32;1.77;;;1.40;;
261;SDS011;114;48.260;10.988;2022-08-01T09:44:51;3.17;;;1.10;;
261;SDS011;114;48.260;10.988;2022-08-01T09:47:18;1.70;;;1.33;;
261;SDS011;114;48.260;10.988;2022-08-01T09:49:46;1.50;;;1.40;;
261;SDS011;114;48.260;10.988;2022-08-01T09:52:20;1.63;;;1.33;;
261;SDS011;114;48.260;10.988;2022-08-01T09:57:21;4.57;;;1.47;;
261;SDS011;114;48.260;10.988;2022-08-01T09:59:52;1.97;;;1.20;;
261;SDS011;114;48.260;10.988;2022-08-01T10:02:27;5.97;;;1.60;;
261;SDS011;114;48.260;10.988;2022-08-01T10:04:56;3.23;;;1.47;;
261;SDS011;114;48.260;10.988;2022-08-01T10:07:21;8.33;;;1.80;;
261;SDS011;114;48.260;10.988;2022-08-01T10:09:47;4.83;;;1.60;;
261;SDS011;114;48.260;10.988;2022-08-01T10:12:20;1.37;;;1.27;;
261;SDS011;114;48.260;10.988;2022-08-01T10:14:49;1.40;;;1.30;;
261;SDS011;114;48.260;10.988;2022-08-01T10:17:17;2.80;;;1.50;;
261;SDS011;114;48.260;10.988;2022-08-01T10:19:47;2.80;;;1.30;;
261;SDS011;114;48.260;10.988;2022-08-01T10:22:15;11.63;;;1.90;;
261;SDS011;114;48.260;10.988;2022-08-01T10:24:44;1.30;;;1.20;;
261;SDS011;114;48.260;10.988;2022-08-01T10:27:13;1.33;;;1.33;;
261;SDS011;114;48.260;10.988;2022-08-01T10:29:51;6.20;;;1.30;;
261;SDS011;114;48.260;10.988;2022-08-01T10:32:22;1.33;;;1.23;;
261;SDS011;114;48.260;10.988;2022-08-01T10:34:48;1.83;;;1.20;;
261;SDS011;114;48.260;10.988;2022-08-01T10:37:14;8.00;;;1.30;;
261;SDS011;114;48.260;10.988;2022-08-01T10:39:42;5.23;;;1.60;;
261;SDS011;114;48.260;10.988;2022-08-01T10:42:09;4.87;;;1.40;;
261;SDS011;114;48.260;10.988;2022-08-01T10:44:36;2.70;;;1.50;;
261;SDS011;114;48.260;10.988;2022-08-01T10:47:04;1.10;;;1.10;;
261;SDS011;114;48.260;10.988;2022-08-01T10:52:26;1.63;;;1.03;;
261;SDS011;114;48.260;10.988;2022-08-01T10:55:07;1.10;;;0.80;;
261;SDS011;114;48.260;10.988;2022-08-01T10:57:47;1.60;;;1.40;;
261;SDS011;114;48.260;10.988;2022-08-01T11:00:21;4.70;;;0.80;;
261;SDS011;114;48.260;10.988;2022-08-01T11:03:00;7.50;;;1.30;;
261;SDS011;114;48.260;10.988;2022-08-01T11:05:31;5.73;;;0.90;;
261;SDS011;114;48.260;10.988;2022-08-01T11:10:47;3.10;;;0.80;;
261;SDS011;114;48.260;10.988;2022-08-01T11:13:13;1.60;;;0.87;;
261;SDS011;114;48.260;10.988;2022-08-01T11:15:40;1.23;;;0.83;;
261;SDS011;114;48.260;10.988;2022-08-01T11:20:56;4.37;;;1.50;;
261;SDS011;114;48.260;10.988;2022-08-01T11:23:24;1.23;;;1.13;;
261;SDS011;114;48.260;10.988;2022-08-01T11:28:22;1.27;;;0.90;;
261;SDS011;114;48.260;10.988;2022-08-01T11:30:50;1.30;;;0.90;;
261;SDS011;114;48.260;10.988;2022-08-01T11:33:47;0.90;;;0.90;;
261;SDS011;114;48.260;10.988;2022-08-01T11:38:43;5.20;;;1.10;;
261;SDS011;114;48.260;10.988;2022-08-01T11:41:13;1.30;;;0.98;;
261;SDS011;114;48.260;10.988;2022-08-01T11:44:01;3.05;;;1.20;;
261;SDS011;114;48.260;10.988;2022-08-01T11:52:06;1.40;;;0.85;;
261;SDS011;114;48.260;10.988;2022-08-01T11:54:34;0.75;;;0.60;;
261;SDS011;114;48.260;10.988;2022-08-01T11:57:07;0.68;;;0.68;;
261;SDS011;114;48.260;10.988;2022-08-01T11:59:38;0.93;;;0.68;;
261;SDS011;114;48.260;10.988;2022-08-01T12:02:23;0.98;;;0.77;;
261;SDS011;114;48.260;10.988;2022-08-01T12:04:58;2.75;;;0.80;;
261;SDS011;114;48.260;10.988;2022-08-01T12:07:29;3.72;;;1.10;;
261;SDS011;114;48.260;10.988;2022-08-01T12:10:00;2.15;;;0.70;;
261;SDS011;114;48.260;10.988;2022-08-01T12:12:27;1.00;;;0.90;;
261;SDS011;114;48.260;10.988;2022-08-01T12:14:55;2.37;;;0.80;;
261;SDS011;114;48.260;10.988;2022-08-01T12:17:36;0.73;;;0.70;;
261;SDS011;114;48.260;10.988;2022-08-01T12:20:07;4.07;;;0.90;;
261;SDS011;114;48.260;10.988;2022-08-01T12:22:38;6.10;;;1.20;;
261;SDS011;114;48.260;10.988;2022-08-01T12:27:34;1.93;;;1.40;;
261;SDS011;114;48.260;10.988;2022-08-01T12:30:01;3.23;;;1.00;;
261;SDS011;114;48.260;10.988;2022-08-01T12:32:30;2.20;;;0.90;;
261;SDS011;114;48.260;10.988;2022-08-01T12:35:11;1.55;;;1.20;;
261;SDS011;114;48.260;10.988;2022-08-01T12:37:47;1.40;;;1.08;;
261;SDS011;114;48.260;10.988;2022-08-01T12:40:16;3.80;;;1.25;;
261;SDS011;114;48.260;10.988;2022-08-01T12:42:48;1.42;;;1.17;;
261;SDS011;114;48.260;10.988;2022-08-01T12:45:20;1.70;;;0.90;;
261;SDS011;114;48.260;10.988;2022-08-01T12:47:49;1.13;;;0.90;;
261;SDS011;114;48.260;10.988;2022-08-01T12:50:18;3.00;;;0.90;;
261;SDS011;114;48.260;10.988;2022-08-01T12:52:46;1.13;;;0.85;;
261;SDS011;114;48.260;10.988;2022-08-01T12:55:20;1.95;;;1.00;;
261;SDS011;114;48.260;10.988;2022-08-01T12:57:48;3.53;;;1.57;;
261;SDS011;114;48.260;10.988;2022-08-01T13:00:17;2.70;;;1.27;;
261;SDS011;114;48.260;10.988;2022-08-01T13:03:01;1.33;;;1.20;;
261;SDS011;114;48.260;10.988;2022-08-01T13:05:28;0.93;;;0.90;;
261;SDS011;114;48.260;10.988;2022-08-01T13:08:17;1.20;;;1.10;;
261;SDS011;114;48.260;10.988;2022-08-01T13:10:44;2.00;;;1.53;;
261;SDS011;114;48.260;10.988;2022-08-01T13:13:10;5.87;;;1.30;;
261;SDS011;114;48.260;10.988;2022-08-01T13:15:39;4.30;;;1.20;;
261;SDS011;114;48.260;10.988;2022-08-01T13:21:07;1.00;;;0.80;;
261;SDS011;114;48.260;10.988;2022-08-01T13:24:03;1.20;;;1.10;;
261;SDS011;114;48.260;10.988;2022-08-01T13:26:41;3.55;;;1.10;;
261;SDS011;114;48.260;10.988;2022-08-01T13:29:11;2.25;;;0.80;;
261;SDS011;114;48.260;10.988;2022-08-01T13:31:39;1.25;;;0.75;;
261;SDS011;114;48.260;10.988;2022-08-01T13:34:05;2.72;;;0.88;;
261;SDS011;114;48.260;10.988;2022-08-01T13:36:31;0.85;;;0.75;;
261;SDS011;114;48.260;10.988;2022-08-01T13:38:58;1.10;;;0.95;;
261;SDS011;114;48.260;10.988;2022-08-01T13:41:43;1.35;;;1.25;;
261;SDS011;114;48.260;10.988;2022-08-01T13:44:09;3.55;;;1.23;;
261;SDS011;114;48.260;10.988;2022-08-01T13:46:38;1.33;;;1.15;;
261;SDS011;114;48.260;10.988;2022-08-01T13:49:06;2.00;;;1.37;;
261;SDS011;114;48.260;10.988;2022-08-01T13:51:33;6.50;;;1.20;;
261;SDS011;114;48.260;10.988;2022-08-01T13:53:59;1.30;;;1.13;;
261;SDS011;114;48.260;10.988;2022-08-01T13:56:25;1.17;;;0.80;;
261;SDS011;114;48.260;10.988;2022-08-01T13:58:52;3.87;;;1.70;;
261;SDS011;114;48.260;10.988;2022-08-01T14:01:18;1.10;;;1.00;;
261;SDS011;114;48.260;10.988;2022-08-01T14:03:45;11.00;;;1.43;;
261;SDS011;114;48.260;10.988;2022-08-01T14:06:11;2.40;;;1.07;;
261;SDS011;114;48.260;10.988;2022-08-01T14:08:39;2.87;;;1.13;;
261;SDS011;114;48.260;10.988;2022-08-01T14:11:04;3.40;;;1.33;;
261;SDS011;114;48.260;10.988;2022-08-01T14:13:30;1.67;;;1.00;;
261;SDS011;114;48.260;10.988;2022-08-01T14:15:58;2.93;;;1.60;;
261;SDS011;114;48.260;10.988;2022-08-01T14:18:24;3.13;;;1.53;;
261;SDS011;114;48.260;10.988;2022-08-01T14:20:50;3.63;;;1.10;;
261;SDS011;114;48.260;10.988;2022-08-01T14:23:16;5.73;;;1.83;;
261;SDS011;114;48.260;10.988;2022-08-01T14:25:42;1.17;;;1.17;;
261;SDS011;114;48.260;10.988;2022-08-01T14:28:08;4.70;;;1.10;;
261;SDS011;114;48.260;10.988;2022-08-01T14:30:35;1.37;;;0.97;;
261;SDS011;114;48.260;10.988;2022-08-01T14:33:01;1.90;;;1.20;;
261;SDS011;114;48.260;10.988;2022-08-01T14:35:27;5.90;;;1.30;;
261;SDS011;114;48.260;10.988;2022-08-01T14:37:54;0.70;;;0.70;;
261;SDS011;114;48.260;10.988;2022-08-01T14:40:19;3.60;;;1.00;;
261;SDS011;114;48.260;10.988;2022-08-01T14:42:45;3.23;;;0.83;;
261;SDS011;114;48.260;10.988;2022-08-01T14:45:12;3.50;;;0.93;;
261;SDS011;114;48.260;10.988;2022-08-01T14:47:42;2.80;;;0.67;;
261;SDS011;114;48.260;10.988;2022-08-01T14:50:09;1.17;;;0.77;;
261;SDS011;114;48.260;10.988;2022-08-01T14:52:37;1.30;;;1.10;;
261;SDS011;114;48.260;10.988;2022-08-01T14:55:04;1.77;;;0.70;;
261;SDS011;114;48.260;10.988;2022-08-01T14:57:31;0.60;;;0.50;;
261;SDS011;114;48.260;10.988;2022-08-01T14:59:57;2.80;;;0.60;;
261;SDS011;114;48.260;10.988;2022-08-01T15:02:22;2.67;;;0.63;;
261;SDS011;114;48.260;10.988;2022-08-01T15:04:48;0.83;;;0.70;;
261;SDS011;114;48.260;10.988;2022-08-01T15:07:15;1.10;;;0.60;;
261;SDS011;114;48.260;10.988;2022-08-01T15:09:41;1.20;;;0.47;;
261;SDS011;114;48.260;10.988;2022-08-01T15:12:08;0.70;;;0.67;;
261;SDS011;114;48.260;10.988;2022-08-01T15:14:35;0.60;;;0.57;;
261;SDS011;114;48.260;10.988;2022-08-01T15:17:17;1.17;;;0.70;;
261;SDS011;114;48.260;10.988;2022-08-01T15:19:48;2.07;;;1.00;;
261;SDS011;114;48.260;10.988;2022-08-01T15:22:15;2.50;;;0.80;;
261;SDS011;114;48.260;10.988;2022-08-01T15:24:42;1.97;;;0.60;;
261;SDS011;114;48.260;10.988;2022-08-01T15:27:08;0.63;;;0.60;;
261;SDS011;114;48.260;10.988;2022-08-01T15:29:34;1.00;;;0.70;;
261;SDS011;114;48.260;10.988;2022-08-01T15:32:02;0.70;;;0.63;;
261;SDS011;114;48.260;10.988;2022-08-01T15:34:29;0.83;;;0.60;;
261;SDS011;114;48.260;10.988;2022-08-01T15:36:55;5.97;;;0.80;;
261;SDS011;114;48.260;10.988;2022-08-01T15:39:21;2.93;;;0.70;;
261;SDS011;114;48.260;10.988;2022-08-01T15:41:46;0.93;;;0.47;;
261;SDS011;114;48.260;10.988;2022-08-01T15:44:12;1.97;;;0.50;;
261;SDS011;114;48.260;10.988;2022-08-01T15:46:38;8.40;;;0.90;;
261;SDS011;114;48.260;10.988;2022-08-01T15:49:05;5.70;;;1.30;;
261;SDS011;114;48.260;10.988;2022-08-01T15:51:31;20.43;;;1.30;;
261;SDS011;114;48.260;10.988;2022-08-01T15:53:57;4.73;;;0.60;;
261;SDS011;114;48.260;10.988;2022-08-01T15:56:28;0.90;;;0.70;;
261;SDS011;114;48.260;10.988;2022-08-01T15:58:55;2.10;;;0.70;;
261;SDS011;114;48.260;10.988;2022-08-01T16:01:21;0.73;;;0.73;;
261;SDS011;114;48.260;10.988;2022-08-01T16:03:47;1.03;;;0.70;;
261;SDS011;114;48.260;10.988;2022-08-01T16:06:12;4.30;;;0.93;;
261;SDS011;114;48.260;10.988;2022-08-01T16:08:39;3.67;;;1.40;;
261;SDS011;114;48.260;10.988;2022-08-01T16:11:05;4.07;;;1.80;;
261;SDS011;114;48.260;10.988;2022-08-01T16:13:30;1.53;;;1.03;;
261;SDS011;114;48.260;10.988;2022-08-01T16:15:56;3.30;;;1.27;;
261;SDS011;114;48.260;10.988;2022-08-01T16:18:23;1.27;;;0.90;;
261;SDS011;114;48.260;10.988;2022-08-01T16:20:49;1.70;;;1.60;;
261;SDS011;114;48.260;10.988;2022-08-01T16:23:15;6.57;;;1.03;;